AVA9464 SKCL-SKRG
Flight info
| Callsign | AVA9464 |
|---|---|
| Flight time | 0h 31m |
| Altitude | 23000 |
| Route | ULQ1C ULQ W3 ISVON ISVON4A |
| Aircraft | A320/M-SDE3FGHIRWY/LB1 |
Departure
| Time | 2026-05-06 20:22 |
|---|---|
| Airport | Alfonso Bonilla Aragon International Airport (SKCL) |
Arrival
| Time | 2026-05-06 20:53 |
|---|---|
| Airport | Jose Maria Córdova International Airport (SKRG) |
| Time | Latitude | Longitude | Altitude | Speed | Heading |
|---|---|---|---|---|---|
| 2026-05-06 19:40 | 3.53863 | -76.38740 | 3163 ft | 0 kts | 207° |
| 2026-05-06 20:09 | 3.53872 | -76.38736 | 3162 ft | 3 kts | 211° |
| 2026-05-06 20:09 | 3.53891 | -76.38722 | 3162 ft | 3 kts | 228° |
| 2026-05-06 20:10 | 3.53904 | -76.38703 | 3163 ft | 3 kts | 250° |
| 2026-05-06 20:10 | 3.53909 | -76.38681 | 3163 ft | 3 kts | 270° |
| 2026-05-06 20:10 | 3.53907 | -76.38657 | 3163 ft | 2 kts | 279° |
| 2026-05-06 20:10 | 3.53905 | -76.38639 | 3163 ft | 3 kts | 258° |
| 2026-05-06 20:11 | 3.53914 | -76.38621 | 3163 ft | 3 kts | 214° |
| 2026-05-06 20:11 | 3.53932 | -76.38612 | 3163 ft | 1 kts | 189° |
| 2026-05-06 20:11 | 3.53933 | -76.38612 | 3163 ft | 0 kts | 189° |
| 2026-05-06 20:16 | 3.53917 | -76.38615 | 3163 ft | 7 kts | 189° |
| 2026-05-06 20:16 | 3.53856 | -76.38625 | 3162 ft | 8 kts | 186° |
| 2026-05-06 20:16 | 3.53798 | -76.38590 | 3162 ft | 12 kts | 143° |
| 2026-05-06 20:17 | 3.53723 | -76.38535 | 3162 ft | 15 kts | 144° |
| 2026-05-06 20:17 | 3.53649 | -76.38481 | 3162 ft | 12 kts | 143° |
| 2026-05-06 20:17 | 3.53588 | -76.38458 | 3162 ft | 10 kts | 189° |
| 2026-05-06 20:17 | 3.53511 | -76.38471 | 3162 ft | 13 kts | 190° |
| 2026-05-06 20:18 | 3.53411 | -76.38489 | 3163 ft | 15 kts | 190° |
| 2026-05-06 20:18 | 3.53300 | -76.38509 | 3164 ft | 17 kts | 190° |
| 2026-05-06 20:18 | 3.53188 | -76.38529 | 3162 ft | 17 kts | 190° |
| 2026-05-06 20:18 | 3.53062 | -76.38551 | 3162 ft | 14 kts | 190° |
| 2026-05-06 20:19 | 3.52964 | -76.38540 | 3162 ft | 13 kts | 132° |
| 2026-05-06 20:19 | 3.52951 | -76.38500 | 3162 ft | 0 kts | 92° |
| 2026-05-06 20:19 | 3.52951 | -76.38493 | 3162 ft | 3 kts | 90° |
| 2026-05-06 20:20 | 3.52966 | -76.38466 | 3161 ft | 6 kts | 51° |
| 2026-05-06 20:20 | 3.53005 | -76.38426 | 3161 ft | 10 kts | 59° |
| 2026-05-06 20:20 | 3.53032 | -76.38388 | 3160 ft | 6 kts | 12° |
| 2026-05-06 20:20 | 3.53049 | -76.38386 | 3160 ft | 0 kts | 8° |
| 2026-05-06 20:21 | 3.53196 | -76.38361 | 3160 ft | 58 kts | 10° |
| 2026-05-06 20:21 | 3.53820 | -76.38254 | 3164 ft | 122 kts | 9° |
| 2026-05-06 20:21 | 3.54834 | -76.38080 | 3166 ft | 172 kts | 9° |
| 2026-05-06 20:22 | 3.56081 | -76.37855 | 3633 ft | 183 kts | 12° |
| 2026-05-06 20:22 | 3.57335 | -76.37625 | 4455 ft | 181 kts | 8° |
| 2026-05-06 20:22 | 3.58584 | -76.37411 | 5074 ft | 183 kts | 7° |
| 2026-05-06 20:22 | 3.59848 | -76.37189 | 5732 ft | 185 kts | 10° |
| 2026-05-06 20:23 | 3.61111 | -76.36959 | 6341 ft | 185 kts | 7° |
| 2026-05-06 20:23 | 3.62433 | -76.36728 | 6588 ft | 203 kts | 8° |
| 2026-05-06 20:23 | 3.63899 | -76.36471 | 6745 ft | 223 kts | 9° |
| 2026-05-06 20:23 | 3.65518 | -76.36188 | 6930 ft | 249 kts | 9° |
| 2026-05-06 20:24 | 3.67302 | -76.35881 | 7240 ft | 270 kts | 9° |
| 2026-05-06 20:24 | 3.69174 | -76.35552 | 7781 ft | 282 kts | 10° |
| 2026-05-06 20:24 | 3.71097 | -76.35088 | 8496 ft | 287 kts | 16° |
| 2026-05-06 20:24 | 3.73034 | -76.34529 | 9277 ft | 291 kts | 18° |
| 2026-05-06 20:25 | 3.74980 | -76.33939 | 10030 ft | 294 kts | 18° |
| 2026-05-06 20:25 | 3.76952 | -76.33335 | 10698 ft | 297 kts | 18° |
| 2026-05-06 20:25 | 3.78949 | -76.32727 | 11378 ft | 302 kts | 19° |
| 2026-05-06 20:25 | 3.80966 | -76.32080 | 12091 ft | 305 kts | 21° |
| 2026-05-06 20:26 | 3.82957 | -76.31398 | 12812 ft | 307 kts | 22° |
| 2026-05-06 20:26 | 3.84988 | -76.30682 | 13359 ft | 317 kts | 22° |
| 2026-05-06 20:26 | 3.87144 | -76.29917 | 13495 ft | 339 kts | 22° |
| 2026-05-06 20:26 | 3.89423 | -76.29117 | 13779 ft | 354 kts | 22° |
| 2026-05-06 20:27 | 3.91772 | -76.28303 | 14281 ft | 359 kts | 22° |
| 2026-05-06 20:27 | 3.94146 | -76.27485 | 14854 ft | 361 kts | 21° |
| 2026-05-06 20:27 | 3.96542 | -76.26667 | 15428 ft | 365 kts | 21° |
| 2026-05-06 20:27 | 3.98956 | -76.25850 | 15997 ft | 367 kts | 21° |
| 2026-05-06 20:28 | 4.01387 | -76.25025 | 16579 ft | 370 kts | 21° |
| 2026-05-06 20:28 | 4.03804 | -76.24202 | 17157 ft | 372 kts | 21° |
| 2026-05-06 20:28 | 4.06262 | -76.23359 | 17726 ft | 375 kts | 21° |
| 2026-05-06 20:28 | 4.08728 | -76.22488 | 18277 ft | 377 kts | 24° |
| 2026-05-06 20:29 | 4.11073 | -76.21295 | 18773 ft | 378 kts | 31° |
| 2026-05-06 20:29 | 4.13369 | -76.19988 | 19242 ft | 380 kts | 31° |
| 2026-05-06 20:29 | 4.15687 | -76.18670 | 19673 ft | 384 kts | 31° |
| 2026-05-06 20:29 | 4.18022 | -76.17347 | 20132 ft | 387 kts | 31° |
| 2026-05-06 20:30 | 4.20349 | -76.16034 | 20577 ft | 390 kts | 31° |
| 2026-05-06 20:30 | 4.25109 | -76.13344 | 21467 ft | 396 kts | 31° |
| 2026-05-06 20:30 | 4.27520 | -76.11978 | 21920 ft | 398 kts | 31° |
| 2026-05-06 20:31 | 4.29960 | -76.10600 | 22326 ft | 402 kts | 31° |
| 2026-05-06 20:31 | 4.32376 | -76.09241 | 22763 ft | 405 kts | 31° |
| 2026-05-06 20:31 | 4.34843 | -76.07858 | 22933 ft | 406 kts | 31° |
| 2026-05-06 20:31 | 4.37283 | -76.06493 | 22981 ft | 399 kts | 31° |
| 2026-05-06 20:32 | 4.39700 | -76.05140 | 22978 ft | 397 kts | 31° |
| 2026-05-06 20:32 | 4.42112 | -76.03785 | 22978 ft | 396 kts | 31° |
| 2026-05-06 20:32 | 4.44513 | -76.02435 | 22957 ft | 396 kts | 30° |
| 2026-05-06 20:32 | 4.46928 | -76.01078 | 22961 ft | 397 kts | 30° |
| 2026-05-06 20:33 | 4.49318 | -75.99738 | 22961 ft | 398 kts | 30° |
| 2026-05-06 20:33 | 4.51745 | -75.98381 | 22963 ft | 397 kts | 30° |
| 2026-05-06 20:33 | 4.54161 | -75.97031 | 22966 ft | 397 kts | 30° |
| 2026-05-06 20:33 | 4.56581 | -75.95680 | 22968 ft | 397 kts | 30° |
| 2026-05-06 20:34 | 4.59006 | -75.94323 | 22965 ft | 397 kts | 30° |
| 2026-05-06 20:34 | 4.61391 | -75.92989 | 22985 ft | 397 kts | 30° |
| 2026-05-06 20:34 | 4.63798 | -75.91643 | 22985 ft | 397 kts | 30° |
| 2026-05-06 20:34 | 4.66213 | -75.90296 | 22998 ft | 395 kts | 30° |
| 2026-05-06 20:35 | 4.68617 | -75.88957 | 23004 ft | 396 kts | 30° |
| 2026-05-06 20:35 | 4.71025 | -75.87614 | 23013 ft | 396 kts | 30° |
| 2026-05-06 20:35 | 4.73440 | -75.86263 | 23021 ft | 397 kts | 30° |
| 2026-05-06 20:35 | 4.75853 | -75.84911 | 23028 ft | 397 kts | 30° |
| 2026-05-06 20:36 | 4.78294 | -75.83618 | 23034 ft | 397 kts | 25° |
| 2026-05-06 20:36 | 4.80901 | -75.82658 | 23041 ft | 398 kts | 20° |
| 2026-05-06 20:36 | 4.83496 | -75.81757 | 23040 ft | 398 kts | 20° |
| 2026-05-06 20:36 | 4.86115 | -75.80845 | 23037 ft | 398 kts | 20° |
| 2026-05-06 20:37 | 4.88734 | -75.79930 | 23038 ft | 398 kts | 20° |
| 2026-05-06 20:37 | 4.91323 | -75.79025 | 23032 ft | 398 kts | 20° |
| 2026-05-06 20:37 | 4.93942 | -75.78108 | 23012 ft | 398 kts | 20° |
| 2026-05-06 20:37 | 4.96558 | -75.77191 | 23041 ft | 398 kts | 21° |
| 2026-05-06 20:38 | 4.99178 | -75.76273 | 23057 ft | 397 kts | 20° |
| 2026-05-06 20:38 | 5.01768 | -75.75366 | 23076 ft | 398 kts | 21° |
| 2026-05-06 20:38 | 5.04392 | -75.74445 | 23078 ft | 397 kts | 21° |
| 2026-05-06 20:38 | 5.06992 | -75.73536 | 23081 ft | 395 kts | 20° |
| 2026-05-06 20:39 | 5.09597 | -75.72627 | 23087 ft | 395 kts | 21° |
| 2026-05-06 20:39 | 5.11318 | -75.72027 | 23087 ft | 396 kts | 20° |
| 2026-05-06 20:39 | 5.13921 | -75.71118 | 23080 ft | 395 kts | 21° |
| 2026-05-06 20:39 | 5.17375 | -75.69913 | 23066 ft | 396 kts | 20° |
| 2026-05-06 20:40 | 5.19984 | -75.69007 | 22975 ft | 393 kts | 20° |
| 2026-05-06 20:40 | 5.21688 | -75.68416 | 22794 ft | 387 kts | 20° |
| 2026-05-06 20:40 | 5.24204 | -75.67544 | 22526 ft | 379 kts | 20° |
| 2026-05-06 20:40 | 5.26687 | -75.66681 | 22256 ft | 376 kts | 20° |
| 2026-05-06 20:41 | 5.29152 | -75.65820 | 21994 ft | 374 kts | 20° |
| 2026-05-06 20:41 | 5.31610 | -75.64961 | 21723 ft | 372 kts | 20° |
| 2026-05-06 20:41 | 5.34052 | -75.64108 | 21454 ft | 371 kts | 21° |
| 2026-05-06 20:41 | 5.36449 | -75.63271 | 21194 ft | 366 kts | 21° |
| 2026-05-06 20:42 | 5.38852 | -75.62435 | 20742 ft | 365 kts | 21° |
| 2026-05-06 20:42 | 5.41201 | -75.61477 | 20265 ft | 363 kts | 29° |
| 2026-05-06 20:42 | 5.43431 | -75.60288 | 19806 ft | 362 kts | 30° |
| 2026-05-06 20:42 | 5.45654 | -75.59103 | 19335 ft | 362 kts | 30° |
| 2026-05-06 20:43 | 5.47887 | -75.57921 | 18848 ft | 362 kts | 30° |
| 2026-05-06 20:43 | 5.50115 | -75.56746 | 18158 ft | 369 kts | 30° |
| 2026-05-06 20:43 | 5.52396 | -75.55542 | 17615 ft | 369 kts | 30° |
| 2026-05-06 20:43 | 5.54658 | -75.54349 | 17152 ft | 366 kts | 30° |
| 2026-05-06 20:44 | 5.56899 | -75.53171 | 16858 ft | 358 kts | 30° |
| 2026-05-06 20:44 | 5.59074 | -75.52027 | 16742 ft | 347 kts | 31° |
| 2026-05-06 20:44 | 5.61181 | -75.50916 | 16599 ft | 335 kts | 31° |
| 2026-05-06 20:44 | 5.63205 | -75.49846 | 16247 ft | 324 kts | 31° |
| 2026-05-06 20:45 | 5.65190 | -75.48794 | 15763 ft | 321 kts | 31° |
| 2026-05-06 20:45 | 5.67133 | -75.47762 | 15212 ft | 317 kts | 31° |
| 2026-05-06 20:45 | 5.69082 | -75.46723 | 14605 ft | 316 kts | 31° |
| 2026-05-06 20:45 | 5.71016 | -75.45693 | 14050 ft | 314 kts | 32° |
| 2026-05-06 20:46 | 5.72913 | -75.44684 | 13685 ft | 304 kts | 32° |
| 2026-05-06 20:46 | 5.74732 | -75.43721 | 13556 ft | 287 kts | 32° |
| 2026-05-06 20:46 | 5.76465 | -75.42817 | 13350 ft | 275 kts | 28° |
| 2026-05-06 20:46 | 5.78316 | -75.42273 | 13042 ft | 278 kts | 11° |
| 2026-05-06 20:47 | 5.80242 | -75.42205 | 12655 ft | 277 kts | 4° |
| 2026-05-06 20:47 | 5.82178 | -75.42204 | 12336 ft | 278 kts | 3° |
| 2026-05-06 20:47 | 5.84090 | -75.42208 | 12017 ft | 279 kts | 3° |
| 2026-05-06 20:47 | 5.86009 | -75.42158 | 11795 ft | 269 kts | 5° |
| 2026-05-06 20:48 | 5.87830 | -75.42126 | 11712 ft | 253 kts | 4° |
| 2026-05-06 20:48 | 5.89573 | -75.42134 | 11540 ft | 248 kts | 3° |
| 2026-05-06 20:48 | 5.91282 | -75.42148 | 11290 ft | 243 kts | 2° |
| 2026-05-06 20:48 | 5.92939 | -75.42160 | 11003 ft | 239 kts | 2° |
| 2026-05-06 20:49 | 5.94584 | -75.42171 | 10730 ft | 233 kts | 3° |
| 2026-05-06 20:49 | 5.96188 | -75.42181 | 10471 ft | 228 kts | 3° |
| 2026-05-06 20:49 | 5.97776 | -75.42191 | 10224 ft | 226 kts | 3° |
| 2026-05-06 20:49 | 5.99330 | -75.42203 | 9952 ft | 218 kts | 2° |
| 2026-05-06 20:50 | 6.00788 | -75.42212 | 9705 ft | 206 kts | 1° |
| 2026-05-06 20:50 | 6.02187 | -75.42221 | 9465 ft | 196 kts | 1° |
| 2026-05-06 20:50 | 6.03506 | -75.42229 | 9227 ft | 185 kts | 3° |
| 2026-05-06 20:50 | 6.04766 | -75.42238 | 9012 ft | 176 kts | 2° |
| 2026-05-06 20:51 | 6.05987 | -75.42245 | 8793 ft | 174 kts | 2° |
| 2026-05-06 20:51 | 6.07188 | -75.42252 | 8594 ft | 171 kts | 2° |
| 2026-05-06 20:51 | 6.08372 | -75.42261 | 8343 ft | 170 kts | 2° |
| 2026-05-06 20:51 | 6.09543 | -75.42270 | 8150 ft | 172 kts | 3° |
| 2026-05-06 20:52 | 6.10733 | -75.42280 | 7903 ft | 169 kts | 1° |
| 2026-05-06 20:52 | 6.11922 | -75.42284 | 7611 ft | 170 kts | 2° |
| 2026-05-06 20:52 | 6.13100 | -75.42286 | 7405 ft | 168 kts | 1° |
| 2026-05-06 20:52 | 6.14252 | -75.42291 | 7147 ft | 167 kts | 2° |
| 2026-05-06 20:53 | 6.15409 | -75.42309 | 6986 ft | 158 kts | 2° |
| 2026-05-06 20:53 | 6.16382 | -75.42312 | 6989 ft | 116 kts | 360° |
| 2026-05-06 20:53 | 6.17020 | -75.42316 | 7019 ft | 67 kts | 360° |
| 2026-05-06 20:53 | 6.17392 | -75.42319 | 7022 ft | 38 kts | 359° |
| 2026-05-06 20:54 | 6.17524 | -75.42320 | 7027 ft | 14 kts | 0° |
| 2026-05-06 20:54 | 6.17573 | -75.42364 | 7021 ft | 11 kts | 273° |
| 2026-05-06 20:54 | 6.17573 | -75.42410 | 7024 ft | 4 kts | 271° |
| 2026-05-06 20:54 | 6.17573 | -75.42440 | 7021 ft | 4 kts | 270° |
| 2026-05-06 20:55 | 6.17573 | -75.42478 | 7022 ft | 3 kts | 269° |
| 2026-05-06 20:55 | 6.17544 | -75.42511 | 7020 ft | 9 kts | 213° |
| 2026-05-06 20:55 | 6.17479 | -75.42554 | 7019 ft | 14 kts | 213° |
| 2026-05-06 20:55 | 6.17401 | -75.42605 | 7016 ft | 12 kts | 213° |
| 2026-05-06 20:56 | 6.17317 | -75.42621 | 7016 ft | 15 kts | 178° |
| 2026-05-06 20:56 | 6.17207 | -75.42618 | 7016 ft | 15 kts | 179° |
| 2026-05-06 20:56 | 6.17113 | -75.42615 | 7017 ft | 12 kts | 176° |
| 2026-05-06 20:56 | 6.17055 | -75.42652 | 7016 ft | 5 kts | 255° |
| 2026-05-06 20:57 | 6.17067 | -75.42684 | 7016 ft | 3 kts | 288° |
| 2026-05-06 20:57 | 6.17071 | -75.42693 | 7016 ft | 0 kts | 291° |